Detall de PIREP

Printer-friendly versionPDF version

[2010/12/04 11:42:00]
Flight IATA:CT2103
Pilot Number:026
Company ICAO:CAT
Aircraft Type:DC85/A
PAX:136
Departing Airport: LEBZ
Destination Airport: LEVC
Alternate Airport:LEPA
Online: VATSIM
Route:DCT CCS G7 CJN A33 CENTA
Flight Level:FL200
No Slew and time accel
No pause
Crash detect
Detect pilot in Cockpit between each 30 and 45 minutes
11:42 Zero fuel Weight: 178303 Lbs, Fuel Weight: 31785 Lbs
11:42 VATSIM:LEBZ 041100Z 09012KT CAVOK 05/01 Q1018
11:42 VATSIM:LEVC 041130Z 00000KT CAVOK 11/M04 Q1022 NOSIG
11:42 VOICE CATALONIAN / LEVC HUB ROUTE CT2303
11:43 VOICE CATALONIAN / LEVC HUB ROUTE CT2103
11:48 Parking Brakes off
12:03 Take-off
12:03 Take off Weight: 208406 Lbs
12:03 Wind: 095º @ 012 Knots Heading: 123º
12:03 POS N38º 53´ 25´´ W006º 49´ 10´´
12:03 Gear Up: 172 Knots
12:03 Flaps:2 at 172 Knots
12:04 Flaps:1 at 226 Knots
12:04 Flaps:0 at 233 Knots
12:11 TOC
12:11 Fuel Weight: 27085 Lb
12:18 Wind:100º@024 Knots Heading: 076º Ground Speed: 399 Knots Altitude 20114 ft
12:33 Wind:110º@009 Knots Heading: 074º Ground Speed: 405 Knots Altitude 20187 ft
12:43 TOD
12:43 Fuel Weight: 19478 Lb
12:48 Wind:135º@010 Knots Heading: 119º Ground Speed: 342 Knots Altitude 12755 ft
12:57 Flaps:1 at 269 Knots
12:59 Flaps:2 at 226 Knots
12:59 Gear Down: 226 Knots
12:59 Flaps:3 at 199 Knots
13:00 Flaps:4 at 154 Knots
13:01 Flaps:5 at 145 Knots
13:01 TouchDown:Rate -209 ft/min Speed: 121 Knots
13:02 VATSIM:LEVC 041230Z VRB01KT CAVOK 12/M06 Q1021 NOSIG
13:02 Land
13:02 Wind:132º@003 Knots
13:02 Heading: 120º
13:02 Flight Duration: 00:59
13:02 Landing Weight: 196212 Lbs
13:02 POS N39º 29´ 25´´ W000º 29´ 04´´
13:04 Parking brakes on
13:04 Block to Block Duration: 01:16
13:04 Final Fuel: 17722 Lbls
13:04 Spent Fuel: 14063 Lbls
13:04 Flight Length: 345 NM
13:04 TOD Land Length: 84 NM

Exportar CSV

Powered by Drupal - Modified by Danger4k